Time;durP1;ratioP1;P1;durP2;ratioP2;P2;SDS_P1;SDS_P2;PMS_P1;PMS_P2;Temp;Humidity;BMP_temperature;BMP_pressure;BME280_temperature;BME280_humidity;BME280_pressure;Samples;Min_cycle;Max_cycle;Signal;HPM_P1;HPM_P2
2022/08/25 00:01:19;;;;;;;21.52;19.52;;;22.40;99.90;;;;;;5070736;28;20051;-76
2022/08/25 00:03:45;;;;;;;17.70;16.17;;;22.40;99.90;;;;;;5066941;28;20143;-77
2022/08/25 00:06:12;;;;;;;19.42;17.05;;;22.40;99.90;;;;;;5089197;28;20055;-77
2022/08/25 00:08:39;;;;;;;20.85;18.85;;;22.30;99.90;;;;;;5056659;28;20060;-77
2022/08/25 00:11:14;;;;;;;19.58;17.70;;;22.30;99.90;;;;;;5083225;28;20059;-77
2022/08/25 00:13:44;;;;;;;19.60;17.70;;;22.30;99.90;;;;;;5084393;28;20093;-77
2022/08/25 00:16:12;;;;;;;17.70;15.90;;;22.20;99.90;;;;;;5089445;28;20050;-77
2022/08/25 00:18:40;;;;;;;17.95;16.05;;;22.20;99.90;;;;;;5084183;28;20075;-77
2022/08/25 00:21:06;;;;;;;18.20;16.60;;;22.20;99.90;;;;;;5073710;28;20592;-77
2022/08/25 00:23:32;;;;;;;19.02;17.13;;;22.20;99.90;;;;;;5069688;28;20119;-77
2022/08/25 00:25:58;;;;;;;18.08;16.48;;;22.10;99.90;;;;;;5084151;28;20469;-77
2022/08/25 00:28:24;;;;;;;19.33;17.27;;;22.10;99.90;;;;;;5086031;28;20408;-77
2022/08/25 00:30:49;;;;;;;21.88;19.65;;;22.10;99.90;;;;;;5089740;28;20504;-76
2022/08/25 00:33:16;;;;;;;18.35;16.65;;;22.10;99.90;;;;;;5092670;28;20533;-76
2022/08/25 00:35:42;;;;;;;18.63;16.85;;;22.10;99.90;;;;;;5087412;28;20051;-77
2022/08/25 00:38:10;;;;;;;18.50;16.88;;;22.00;99.90;;;;;;5091246;28;20396;-78
2022/08/25 00:40:38;;;;;;;21.38;19.48;;;22.00;99.90;;;;;;5106871;28;20077;-77
2022/08/25 00:43:05;;;;;;;22.00;19.90;;;22.00;99.90;;;;;;5110549;28;20055;-77
2022/08/25 00:45:32;;;;;;;21.63;19.63;;;22.00;99.90;;;;;;5085286;28;20239;-77
2022/08/25 00:47:57;;;;;;;22.13;20.00;;;21.90;99.90;;;;;;5031821;28;20510;-77
2022/08/25 00:50:24;;;;;;;18.55;16.55;;;21.90;99.90;;;;;;5065703;28;20181;-77
2022/08/25 00:52:54;;;;;;;23.33;20.65;;;21.90;99.90;;;;;;5096125;28;20048;-77
2022/08/25 00:55:25;;;;;;;19.63;17.40;;;21.90;99.90;;;;;;5104058;28;20047;-77
2022/08/25 00:58:01;;;;;;;19.08;17.38;;;21.90;99.90;;;;;;5094223;28;20051;-77
2022/08/25 01:00:28;;;;;;;;;;;21.80;99.90;;;;;;5090459;28;20172;-76
2022/08/25 01:02:56;;;;;;;23.15;20.58;;;21.80;99.90;;;;;;5087660;28;19924;-76
2022/08/25 01:05:22;;;;;;;20.30;18.33;;;21.80;99.90;;;;;;5064534;28;20048;-76
2022/08/25 01:07:49;;;;;;;19.98;17.98;;;21.80;99.90;;;;;;5065927;28;20048;-76
2022/08/25 01:10:17;;;;;;;19.25;17.45;;;21.80;99.90;;;;;;5080944;28;20071;-76
2022/08/25 01:12:43;;;;;;;20.90;18.80;;;21.70;99.90;;;;;;5099273;28;20087;-76
2022/08/25 01:15:10;;;;;;;21.33;19.33;;;21.70;99.90;;;;;;5069549;28;20528;-76
2022/08/25 01:17:56;;;;;;;19.95;17.90;;;21.60;99.90;;;;;;5074189;28;20048;-76
2022/08/25 01:20:24;;;;;;;19.27;17.40;;;21.70;99.90;;;;;;5084910;28;20075;-76
2022/08/25 01:22:50;;;;;;;20.58;18.50;;;21.60;99.90;;;;;;5083595;28;20036;-76
2022/08/25 01:25:55;;;;;;;20.08;18.17;;;21.60;99.90;;;;;;5090340;28;20043;-76
2022/08/25 01:28:21;;;;;;;21.75;19.75;;;21.60;99.90;;;;;;5081807;28;20052;-77
2022/08/25 01:30:48;;;;;;;20.30;18.42;;;21.50;99.90;;;;;;5065469;28;20058;-77
2022/08/25 01:33:16;;;;;;;21.42;19.45;;;21.50;99.90;;;;;;5064691;28;20147;-76
2022/08/25 01:35:42;;;;;;;19.85;17.95;;;21.40;99.90;;;;;;5080304;28;20047;-76
2022/08/25 01:38:09;;;;;;;18.75;16.63;;;21.40;99.90;;;;;;5089385;28;20048;-76
2022/08/25 01:40:36;;;;;;;19.23;17.35;;;21.30;99.90;;;;;;5082476;28;20485;-76
2022/08/25 01:43:07;;;;;;;19.80;17.92;;;21.30;99.90;;;;;;5085950;28;20050;-75
2022/08/25 01:45:33;;;;;;;20.60;18.60;;;21.30;99.90;;;;;;5085903;28;20080;-76
2022/08/25 01:48:00;;;;;;;18.63;16.92;;;21.20;99.90;;;;;;5073697;28;20058;-76
2022/08/25 01:50:26;;;;;;;19.10;17.17;;;21.20;99.90;;;;;;5524143;22;20084;-82
2022/08/25 01:53:09;;;;;;;20.25;18.45;;;21.20;99.90;;;;;;5020486;28;20570;-83
2022/08/25 01:56:22;;;;;;;19.67;17.70;;;21.20;99.90;;;;;;5034857;28;20049;-83
2022/08/25 01:58:26;;;;;;;20.15;17.55;;;21.20;99.90;;;;;;5029787;28;20399;-83
2022/08/25 02:00:55;;;;;;;17.83;16.10;;;21.30;99.90;;;;;;5034750;28;20129;-84
2022/08/25 02:03:22;;;;;;;19.38;17.58;;;21.00;99.90;;;;;;5027545;28;20052;-83
2022/08/25 02:05:48;;;;;;;18.23;16.55;;;21.00;99.90;;;;;;5017105;28;20045;-84
2022/08/25 02:08:13;;;;;;;18.95;17.05;;;20.90;99.90;;;;;;5037268;28;20056;-83
2022/08/25 02:10:40;;;;;;;18.25;16.45;;;20.90;99.90;;;;;;5018215;28;20060;-83
2022/08/25 02:13:09;;;;;;;19.40;17.52;;;20.80;99.90;;;;;;5036034;28;20071;-83
2022/08/25 02:15:43;;;;;;;20.05;18.15;;;20.80;99.90;;;;;;5020302;28;20057;-82
2022/08/25 02:18:09;;;;;;;19.30;17.30;;;20.80;99.90;;;;;;5053559;28;20041;-82
2022/08/25 02:20:36;;;;;;;16.55;14.95;;;20.70;99.90;;;;;;5010679;28;20048;-84
2022/08/25 02:23:02;;;;;;;18.50;16.73;;;20.70;99.90;;;;;;5035449;28;20057;-84
2022/08/25 02:25:28;;;;;;;16.85;15.18;;;20.70;99.90;;;;;;5033691;28;20095;-83
2022/08/25 02:27:54;;;;;;;16.50;15.00;;;20.60;99.90;;;;;;5035289;28;20045;-84
2022/08/25 02:30:20;;;;;;;16.13;14.52;;;20.60;99.90;;;;;;5037038;28;20046;-84
2022/08/25 02:32:46;;;;;;;18.20;16.30;;;20.60;99.90;;;;;;5036600;28;20060;-84
2022/08/25 02:35:12;;;;;;;18.25;16.50;;;20.60;99.90;;;;;;5034738;28;20406;-83
2022/08/25 02:37:38;;;;;;;17.65;15.85;;;20.50;99.90;;;;;;5018418;28;20046;-83
2022/08/25 02:40:05;;;;;;;17.77;16.15;;;20.50;99.90;;;;;;5038517;28;20152;-83
2022/08/25 02:42:30;;;;;;;20.05;18.05;;;20.40;99.90;;;;;;5034212;28;20490;-85
2022/08/25 02:44:56;;;;;;;18.63;16.77;;;20.40;99.90;;;;;;5019152;28;20052;-84
2022/08/25 02:47:23;;;;;;;17.42;15.73;;;20.40;99.90;;;;;;5017825;28;20050;-84
2022/08/25 02:49:49;;;;;;;18.45;16.45;;;20.30;99.90;;;;;;5039459;28;20396;-84
2022/08/25 02:52:15;;;;;;;16.80;15.30;;;20.30;99.90;;;;;;5033154;28;20615;-84
2022/08/25 02:54:42;;;;;;;18.33;16.50;;;20.20;99.90;;;;;;5021212;28;20037;-84
2022/08/25 02:57:10;;;;;;;18.63;16.73;;;20.20;99.90;;;;;;5035141;28;20099;-84
2022/08/25 02:59:36;;;;;;;17.88;16.08;;;20.20;99.90;;;;;;5034735;28;20077;-83
2022/08/25 03:02:02;;;;;;;16.50;14.90;;;20.20;99.90;;;;;;5032335;28;20124;-84
2022/08/25 03:04:29;;;;;;;17.35;15.65;;;20.10;99.90;;;;;;5016957;28;20048;-84
2022/08/25 03:06:55;;;;;;;16.50;14.88;;;20.10;99.90;;;;;;5038370;28;20132;-84
2022/08/25 03:09:21;;;;;;;16.67;15.10;;;20.10;99.90;;;;;;5019982;28;20123;-83
2022/08/25 03:11:47;;;;;;;15.10;13.70;;;20.00;99.90;;;;;;5025508;28;20080;-84
2022/08/25 03:14:14;;;;;;;17.00;15.20;;;20.00;99.90;;;;;;5039801;28;20609;-84
2022/08/25 03:16:41;;;;;;;16.30;14.60;;;20.00;99.90;;;;;;5040482;28;20483;-84
2022/08/25 03:19:07;;;;;;;15.32;13.95;;;19.50;99.90;;;;;;5022455;28;20513;-83
2022/08/25 03:21:33;;;;;;;16.83;15.18;;;19.90;99.90;;;;;;5037894;28;20053;-83
2022/08/25 03:24:01;;;;;;;16.90;15.00;;;19.90;99.90;;;;;;5035400;28;20059;-83
2022/08/25 03:29:12;;;;;;;17.30;15.48;;;20.10;99.90;;;;;;5038760;28;20392;-84
2022/08/25 03:31:38;;;;;;;14.93;13.38;;;19.80;99.90;;;;;;5036206;28;20049;-83
2022/08/25 03:34:05;;;;;;;14.43;13.00;;;19.80;99.90;;;;;;5038152;28;20040;-84
2022/08/25 03:36:31;;;;;;;14.50;13.02;;;19.80;99.90;;;;;;5022352;28;20537;-83
2022/08/25 03:38:56;;;;;;;12.80;11.63;;;19.80;99.90;;;;;;5020161;28;20045;-83
2022/08/25 03:41:28;;;;;;;14.05;12.50;;;19.80;99.90;;;;;;5038197;28;20616;-83
2022/08/25 03:43:54;;;;;;;13.02;11.73;;;19.70;99.90;;;;;;5035698;28;20049;-84
2022/08/25 03:46:23;;;;;;;13.30;12.05;;;19.70;99.90;;;;;;5023751;28;20048;-83
2022/08/25 03:48:49;;;;;;;13.48;12.15;;;19.70;99.90;;;;;;5030301;28;20055;-83
2022/08/25 03:51:26;;;;;;;13.23;11.85;;;19.60;99.90;;;;;;5038890;28;20068;-83
2022/08/25 03:53:52;;;;;;;14.15;12.75;;;19.60;99.90;;;;;;5038755;28;20040;-83
2022/08/25 03:56:18;;;;;;;13.60;12.13;;;19.60;99.90;;;;;;5029606;28;20128;-84
2022/08/25 03:58:45;;;;;;;13.48;12.25;;;19.50;99.90;;;;;;5020959;28;20057;-84
2022/08/25 04:01:11;;;;;;;12.38;11.18;;;19.50;99.90;;;;;;5037936;28;20045;-83
2022/08/25 04:03:37;;;;;;;12.38;11.18;;;19.40;99.90;;;;;;5021694;28;20048;-84
2022/08/25 04:06:04;;;;;;;13.95;11.35;;;19.40;99.90;;;;;;5021223;28;20494;-83
2022/08/25 04:08:30;;;;;;;13.18;10.98;;;19.30;99.90;;;;;;5036534;28;20056;-84
2022/08/25 04:10:56;;;;;;;12.02;10.82;;;19.30;99.90;;;;;;5021129;28;20052;-83
2022/08/25 04:13:22;;;;;;;12.13;10.52;;;19.30;99.90;;;;;;5036527;28;20128;-84
2022/08/25 04:15:47;;;;;;;11.48;10.30;;;19.20;99.90;;;;;;5039495;28;20132;-84
2022/08/25 04:18:14;;;;;;;10.65;9.23;;;19.10;99.90;;;;;;5018760;28;20403;-84
2022/08/25 04:20:41;;;;;;;12.45;9.60;;;19.10;99.90;;;;;;5020549;28;20131;-84
2022/08/25 04:23:08;;;;;;;11.00;9.63;;;19.20;99.90;;;;;;5005709;28;20049;-84
2022/08/25 04:25:33;;;;;;;12.70;10.20;;;19.10;99.90;;;;;;5036076;28;20053;-84
2022/08/25 04:28:02;;;;;;;11.25;10.07;;;19.20;99.90;;;;;;5035760;28;20104;-86
2022/08/25 04:30:28;;;;;;;11.38;10.18;;;19.10;99.90;;;;;;5022553;28;20084;-85
2022/08/25 04:32:56;;;;;;;10.00;9.07;;;19.10;99.90;;;;;;5023248;28;20083;-86
2022/08/25 04:35:31;;;;;;;9.85;8.73;;;18.70;99.90;;;;;;5030730;28;20049;-87
2022/08/25 04:38:09;;;;;;;8.45;7.65;;;19.10;99.90;;;;;;5030268;28;20411;-86
2022/08/25 04:40:44;;;;;;;8.68;7.80;;;19.30;99.90;;;;;;5037788;28;20578;-86
2022/08/25 04:43:10;;;;;;;9.65;8.30;;;19.50;99.90;;;;;;5039278;28;20486;-85
2022/08/25 04:45:38;;;;;;;12.50;8.50;;;18.20;99.90;;;;;;5006102;28;20144;-86
2022/08/25 04:48:06;;;;;;;7.75;7.00;;;18.50;99.90;;;;;;5023134;28;20040;-86
2022/08/25 04:50:32;;;;;;;8.40;7.03;;;19.00;99.90;;;;;;5004375;28;20104;-86
2022/08/25 04:52:58;;;;;;;8.30;7.50;;;19.10;99.90;;;;;;5037327;28;20077;-85
2022/08/25 04:55:30;;;;;;;8.13;6.35;;;19.10;99.90;;;;;;5022012;28;20386;-86
2022/08/25 04:58:07;;;;;;;7.78;6.65;;;19.10;99.90;;;;;;5037456;28;20056;-85
2022/08/25 05:00:36;;;;;;;7.65;6.82;;;19.10;99.90;;;;;;5021053;28;20102;-86
2022/08/25 05:03:11;;;;;;;10.35;6.88;;;19.10;99.90;;;;;;5022581;28;20042;-85
2022/08/25 05:05:38;;;;;;;7.70;6.93;;;19.10;99.90;;;;;;5036560;28;20059;-85
2022/08/25 05:08:06;;;;;;;6.97;5.90;;;19.10;99.90;;;;;;5026885;28;20041;-85
2022/08/25 05:10:33;;;;;;;8.77;5.70;;;19.10;99.90;;;;;;5036597;28;20055;-85
2022/08/25 05:12:59;;;;;;;7.30;6.15;;;19.10;99.90;;;;;;5053005;28;20099;-84
2022/08/25 05:18:12;;;;;;;6.50;5.80;;;19.20;99.90;;;;;;5036214;28;20067;-86
2022/08/25 05:20:38;;;;;;;7.32;5.65;;;19.10;99.90;;;;;;5021203;28;20475;-85
2022/08/25 05:23:04;;;;;;;8.90;5.97;;;19.00;99.90;;;;;;5054609;28;20049;-85
2022/08/25 05:25:31;;;;;;;5.93;5.15;;;19.20;99.90;;;;;;5019053;28;20134;-88
2022/08/25 05:27:56;;;;;;;5.90;5.22;;;19.10;99.90;;;;;;5004560;28;20053;-87
2022/08/25 05:30:22;;;;;;;5.88;4.95;;;19.20;99.90;;;;;;5038265;28;20541;-87
2022/08/25 05:32:51;;;;;;;6.28;4.88;;;19.20;99.90;;;;;;5019765;28;20067;-86
2022/08/25 05:35:19;;;;;;;7.03;5.50;;;19.10;99.90;;;;;;5037620;28;20498;-85
2022/08/25 05:37:47;;;;;;;9.02;5.30;;;19.20;99.90;;;;;;5038358;28;20601;-86
2022/08/25 05:40:13;;;;;;;5.82;4.95;;;19.20;99.90;;;;;;5005868;28;20049;-85
2022/08/25 05:42:39;;;;;;;6.72;5.85;;;19.20;99.90;;;;;;5016021;28;20126;-84
2022/08/25 05:45:06;;;;;;;5.70;5.20;;;19.20;99.90;;;;;;5020508;28;20490;-84
2022/08/25 05:47:33;;;;;;;6.00;5.40;;;19.20;99.90;;;;;;5038046;28;20453;-86
2022/08/25 05:50:00;;;;;;;6.88;5.13;;;19.20;99.90;;;;;;5020337;28;20073;-86
2022/08/25 05:52:29;;;;;;;5.72;5.15;;;19.20;99.90;;;;;;5015559;28;20087;-84
2022/08/25 05:54:55;;;;;;;6.68;4.68;;;19.20;99.90;;;;;;5036588;28;20055;-86
2022/08/25 05:57:20;;;;;;;5.75;5.15;;;19.20;99.90;;;;;;5034436;28;20037;-88
2022/08/25 05:59:46;;;;;;;6.60;5.25;;;19.20;99.90;;;;;;5020928;28;20103;-85
2022/08/25 06:04:57;;;;;;;5.90;4.90;;;19.30;99.90;;;;;;5036334;28;20178;-87
2022/08/25 06:07:23;;;;;;;5.25;4.70;;;19.30;99.90;;;;;;5003062;28;20068;-84
2022/08/25 06:09:49;;;;;;;6.60;4.70;;;19.40;99.90;;;;;;5013803;28;20045;-86
2022/08/25 06:12:16;;;;;;;9.18;4.60;;;19.40;99.90;;;;;;5039476;28;20433;-85
2022/08/25 06:14:42;;;;;;;6.18;4.75;;;19.40;99.90;;;;;;5038189;28;20105;-87
2022/08/25 06:17:08;;;;;;;5.07;4.30;;;19.30;99.90;;;;;;5029102;28;20083;-87
2022/08/25 06:19:34;;;;;;;7.25;5.13;;;19.50;99.90;;;;;;5039924;28;20037;-85
2022/08/25 06:22:04;;;;;;;5.15;3.97;;;19.60;99.90;;;;;;4997526;28;20100;-89
2022/08/25 06:24:33;;;;;;;8.93;4.40;;;19.60;99.90;;;;;;5034801;28;20495;-88
2022/08/25 06:26:59;;;;;;;6.55;4.25;;;19.70;99.90;;;;;;5007793;28;20049;-88
2022/08/25 06:29:32;;;;;;;6.20;3.88;;;19.70;99.90;;;;;;5011318;28;20049;-88
2022/08/25 06:31:58;;;;;;;8.15;4.57;;;19.80;99.90;;;;;;5041076;28;20053;-85
2022/08/25 06:34:24;;;;;;;5.13;3.92;;;19.90;99.90;;;;;;5020349;28;20119;-87
2022/08/25 06:36:50;;;;;;;5.80;4.10;;;20.00;99.90;;;;;;5038407;28;20080;-88
2022/08/25 06:39:16;;;;;;;4.90;3.65;;;20.10;99.90;;;;;;5017894;28;20069;-88
2022/08/25 06:41:45;;;;;;;5.65;4.25;;;20.20;99.90;;;;;;5034756;28;20037;-87
2022/08/25 06:44:11;;;;;;;4.78;4.18;;;20.30;99.90;;;;;;5036677;28;20051;-87
2022/08/25 06:46:37;;;;;;;7.57;3.95;;;21.00;99.90;;;;;;5041310;28;20069;-88
2022/08/25 06:49:05;;;;;;;7.47;3.83;;;20.50;99.90;;;;;;5026046;28;20087;-88
2022/08/25 06:51:30;;;;;;;7.95;3.95;;;20.90;99.90;;;;;;5027023;28;20542;-88
2022/08/25 06:53:56;;;;;;;7.38;3.97;;;20.80;99.90;;;;;;5008665;28;20128;-88
2022/08/25 06:56:22;;;;;;;5.82;3.97;;;20.60;99.90;;;;;;5030166;28;20056;-88
2022/08/25 06:58:48;;;;;;;5.72;3.88;;;21.00;99.90;;;;;;4998584;28;20048;-87
2022/08/25 07:01:20;;;;;;;5.88;3.58;;;21.20;99.90;;;;;;5041246;28;20094;-86
2022/08/25 07:03:47;;;;;;;6.00;3.85;;;21.40;99.90;;;;;;5024331;28;20057;-85
2022/08/25 07:06:14;;;;;;;6.00;3.70;;;21.50;99.90;;;;;;5031918;28;20049;-85
2022/08/25 07:08:40;;;;;;;4.93;3.13;;;22.20;99.90;;;;;;5064812;28;20051;-87
2022/08/25 07:11:07;;;;;;;5.30;3.47;;;21.80;99.90;;;;;;5058228;28;20099;-87
2022/08/25 07:13:34;;;;;;;5.30;3.50;;;21.90;99.90;;;;;;5041535;28;20128;-88
2022/08/25 07:16:00;;;;;;;6.03;3.65;;;22.00;99.90;;;;;;5040956;28;20049;-87
2022/08/25 07:18:29;;;;;;;6.07;3.65;;;22.10;99.90;;;;;;5043932;28;20056;-87
2022/08/25 07:20:59;;;;;;;5.85;3.33;;;22.10;99.90;;;;;;5054708;28;20096;-90
2022/08/25 07:23:26;;;;;;;5.03;3.58;;;22.20;99.90;;;;;;5053023;28;20049;-87
2022/08/25 07:25:53;;;;;;;7.47;3.38;;;22.40;99.90;;;;;;5045525;28;20055;-87
2022/08/25 07:28:20;;;;;;;5.78;3.40;;;22.50;99.90;;;;;;5045530;28;20045;-85
2022/08/25 07:30:48;;;;;;;7.82;3.22;;;22.60;99.90;;;;;;5049808;28;20060;-88
2022/08/25 07:33:18;;;;;;;5.82;3.28;;;22.70;99.90;;;;;;5045745;28;20073;-88
2022/08/25 07:35:44;;;;;;;4.70;2.97;;;23.00;99.90;;;;;;5029128;28;20052;-88
2022/08/25 07:38:10;;;;;;;9.32;3.47;;;23.20;99.90;;;;;;5044526;28;20104;-87
2022/08/25 07:40:38;;;;;;;5.22;3.20;;;23.30;99.90;;;;;;5044938;28;20075;-89
2022/08/25 07:43:11;;;;;;;4.88;3.10;;;23.50;99.90;;;;;;5036181;28;20160;-89
2022/08/25 07:45:47;;;;;;;5.15;3.10;;;23.50;99.90;;;;;;5049757;28;20053;-88
2022/08/25 07:48:20;;;;;;;5.63;3.08;;;23.80;99.90;;;;;;5035420;28;20052;-88
2022/08/25 07:50:56;;;;;;;4.40;2.90;;;25.00;99.90;;;;;;5053497;28;20499;-90
2022/08/25 07:53:25;;;;;;;4.15;2.92;;;24.10;99.90;;;;;;5039892;28;20056;-89
2022/08/25 07:55:53;;;;;;;5.47;3.05;;;24.30;99.90;;;;;;5032503;28;20056;-88
2022/08/25 07:58:22;;;;;;;4.60;2.67;;;24.40;99.90;;;;;;5025036;28;20052;-85
2022/08/25 08:00:51;;;;;;;4.13;2.70;;;24.60;99.90;;;;;;5037088;28;20600;-86
2022/08/25 08:03:19;;;;;;;8.73;2.42;;;24.50;99.90;;;;;;5023047;28;20175;-86
2022/08/25 08:05:45;;;;;;;7.60;2.28;;;25.10;99.90;;;;;;5021988;28;20490;-86
2022/08/25 08:08:11;;;;;;;4.72;2.40;;;25.40;99.90;;;;;;5029749;28;20953;-86
2022/08/25 08:10:40;;;;;;;5.53;2.30;;;25.70;99.90;;;;;;5006054;28;20076;-86
2022/08/25 08:13:08;;;;;;;3.42;2.00;;;25.90;99.90;;;;;;5038937;28;20045;-85
2022/08/25 08:15:35;;;;;;;4.00;2.15;;;25.70;99.90;;;;;;5021190;28;20585;-85
2022/08/25 08:18:02;;;;;;;4.65;2.28;;;26.40;99.90;;;;;;5020592;28;20486;-85
2022/08/25 08:20:28;;;;;;;3.45;2.05;;;26.60;99.90;;;;;;5039621;28;20053;-86
2022/08/25 08:22:53;;;;;;;2.83;2.00;;;26.90;99.90;;;;;;5038162;28;20076;-86
2022/08/25 08:25:19;;;;;;;4.97;2.50;;;27.10;99.90;;;;;;5020864;28;20041;-86
2022/08/25 08:27:45;;;;;;;3.78;2.47;;;27.30;99.90;;;;;;5020024;28;20057;-86
2022/08/25 08:30:12;;;;;;;4.05;2.28;;;27.50;99.90;;;;;;5020558;28;20219;-85
2022/08/25 08:32:38;;;;;;;3.20;1.98;;;28.00;99.90;;;;;;5036520;28;20045;-86
2022/08/25 08:35:04;;;;;;;4.18;2.15;;;27.90;99.90;;;;;;5021001;28;20105;-86
2022/08/25 08:37:31;;;;;;;4.13;2.03;;;28.00;99.90;;;;;;5047558;28;20061;-85
2022/08/25 08:40:00;;;;;;;3.90;1.90;;;28.20;99.90;;;;;;5006956;28;20407;-86
2022/08/25 08:43:02;;;;;;;5.50;2.10;;;28.40;99.90;;;;;;5028974;28;20065;-88
2022/08/25 08:45:35;;;;;;;4.70;2.20;;;28.60;99.60;;;;;;5028599;28;20068;-86
2022/08/25 08:48:16;;;;;;;4.18;1.85;;;28.70;99.70;;;;;;5038944;28;20110;-91
2022/08/25 08:50:46;;;;;;;2.83;2.05;;;28.90;98.70;;;;;;5046513;28;20057;-88
2022/08/25 08:53:30;;;;;;;4.80;1.92;;;29.30;99.50;;;;;;5036288;28;20059;-86
2022/08/25 08:56:07;;;;;;;3.17;2.00;;;29.20;98.80;;;;;;5020908;28;20114;-86
2022/08/25 08:58:51;;;;;;;3.47;1.80;;;29.50;98.60;;;;;;5038481;28;20045;-86
2022/08/25 09:01:58;;;;;;;2.50;1.73;;;29.70;97.70;;;;;;5022596;28;20060;-86
2022/08/25 09:04:36;;;;;;;4.78;2.00;;;29.90;97.30;;;;;;5036338;28;20064;-86
2022/08/25 09:07:11;;;;;;;4.45;2.00;;;30.10;96.90;;;;;;5038197;28;20112;-90
2022/08/25 09:09:55;;;;;;;2.88;1.88;;;30.30;96.90;;;;;;5015746;28;20466;-91
2022/08/25 09:13:17;;;;;;;7.97;2.10;;;30.20;96.60;;;;;;5045610;28;20129;-90
2022/08/25 09:19:30;;;;;;;5.00;1.90;;;30.70;95.60;;;;;;4978824;28;20057;-89
2022/08/25 09:22:10;;;;;;;5.90;1.70;;;31.00;95.40;;;;;;4980736;28;20452;-90
2022/08/25 09:25:03;;;;;;;4.55;1.80;;;31.30;94.00;;;;;;4970576;28;20061;-90
2022/08/25 09:27:31;;;;;;;4.57;1.70;;;31.50;93.70;;;;;;4977212;28;20121;-91
2022/08/25 09:30:15;;;;;;;2.90;1.70;;;31.70;93.60;;;;;;4987311;28;20149;-92
2022/08/25 09:33:13;;;;;;;;;;;;;;;;;;;;;
2022/08/25 09:39:11;;;;;;;6.43;1.80;;;31.90;88.50;;;;;;5033155;28;20459;-90
2022/08/25 09:45:46;;;;;;;;;;;;;;;;;;;;;
2022/08/25 09:48:38;;;;;;;4.95;1.40;;;32.20;84.60;;;;;;5032541;28;20128;-90
2022/08/25 09:52:07;;;;;;;5.95;1.27;;;32.20;80.50;;;;;;5039505;28;20068;-90
2022/08/25 09:54:46;;;;;;;3.33;1.48;;;32.20;78.70;;;;;;5033231;28;20057;-87
2022/08/25 09:57:31;;;;;;;5.47;1.50;;;32.40;80.90;;;;;;5039346;28;20052;-87
2022/08/25 10:00:11;;;;;;;4.80;1.92;;;32.50;78.50;;;;;;5034057;28;20037;-86
2022/08/25 10:03:16;;;;;;;5.25;1.45;;;32.70;77.50;;;;;;5018671;28;20124;-91
2022/08/25 10:06:15;;;;;;;4.03;1.60;;;33.00;77.70;;;;;;5040905;28;20076;-92
2022/08/25 10:09:14;;;;;;;3.83;1.45;;;33.10;77.50;;;;;;5041079;28;20088;-92
2022/08/25 10:12:19;;;;;;;;;;;;;;;;;;;;;
2022/08/25 10:15:16;;;;;;;10.63;1.40;;;33.70;75.40;;;;;;5039189;28;20052;-94
2022/08/25 10:22:13;;;;;;;3.17;1.33;;;33.80;67.90;;;;;;5035065;28;20064;-93
2022/08/25 10:25:02;;;;;;;3.70;1.27;;;34.00;71.20;;;;;;5055399;28;20049;-92
2022/08/25 10:30:54;;;;;;;3.25;1.08;;;34.20;66.80;;;;;;5056566;28;20109;-93
2022/08/25 10:33:50;;;;;;;3.35;1.30;;;34.10;66.50;;;;;;5040298;28;20109;-88
2022/08/25 10:36:56;;;;;;;;;;;;;;;;;;;;;
2022/08/25 10:39:51;;;;;;;;;;;;;;;;;;;;;
2022/08/25 10:42:32;;;;;;;4.63;1.23;;;34.10;66.00;;;;;;5049673;28;20783;-91
2022/08/25 10:45:42;;;;;;;3.10;1.45;;;34.30;66.40;;;;;;5034034;28;20057;-90
2022/08/25 10:48:26;;;;;;;3.75;1.00;;;34.40;63.20;;;;;;5001672;28;20506;-90
2022/08/25 10:51:30;;;;;;;5.43;1.10;;;34.50;64.80;;;;;;5033396;28;20049;-92
2022/08/25 10:54:34;;;;;;;2.60;1.10;;;34.70;59.70;;;;;;5035944;28;20096;-89
2022/08/25 10:57:44;;;;;;;3.45;1.10;;;34.40;60.10;;;;;;5032161;28;20106;-89
2022/08/25 11:00:29;;;;;;;3.58;1.23;;;34.40;60.50;;;;;;5032675;28;20441;-87
2022/08/25 11:03:16;;;;;;;1.98;1.00;;;34.50;60.80;;;;;;5032361;28;20044;-86
2022/08/25 11:06:09;;;;;;;1.58;0.90;;;34.60;59.00;;;;;;5032986;28;20076;-87
2022/08/25 11:08:50;;;;;;;3.60;1.20;;;34.70;58.20;;;;;;5012768;28;20049;-88
2022/08/25 11:11:36;;;;;;;2.75;1.10;;;34.80;59.20;;;;;;5012934;28;20132;-87
2022/08/25 11:14:06;;;;;;;4.05;1.10;;;34.80;59.20;;;;;;5013246;28;20045;-88
2022/08/25 11:16:56;;;;;;;3.45;1.40;;;34.70;59.70;;;;;;5031772;28;20144;-87
2022/08/25 11:19:40;;;;;;;6.13;1.20;;;34.60;59.50;;;;;;5015750;28;20398;-87
2022/08/25 11:22:28;;;;;;;3.15;1.02;;;34.80;59.00;;;;;;5035362;28;20068;-86
2022/08/25 11:25:06;;;;;;;4.55;1.10;;;34.90;56.90;;;;;;5034313;28;20447;-92
2022/08/25 11:28:35;;;;;;;;;;;;;;;;;;;;;
2022/08/25 11:31:05;;;;;;;2.45;1.10;;;35.40;57.00;;;;;;5035644;28;20057;-92
2022/08/25 11:33:42;;;;;;;3.65;1.13;;;35.70;57.40;;;;;;5053844;28;20041;-89
2022/08/25 11:36:41;;;;;;;;;;;;;;;;;;;;;
2022/08/25 11:39:54;;;;;;;4.18;1.20;;;36.00;55.10;;;;;;5033553;28;20368;-89
2022/08/25 11:42:59;;;;;;;4.65;1.17;;;35.80;55.80;;;;;;5033999;28;20046;-90
2022/08/25 11:45:52;;;;;;;2.53;1.20;;;35.90;54.90;;;;;;5033778;28;20046;-92
2022/08/25 11:48:24;;;;;;;6.95;1.02;;;36.00;54.90;;;;;;5014876;28;20886;-87
2022/08/25 11:51:06;;;;;;;3.67;1.10;;;36.30;55.80;;;;;;5009077;28;20410;-85
2022/08/25 11:53:35;;;;;;;2.20;1.35;;;36.60;55.00;;;;;;5037294;28;20087;-84
2022/08/25 11:56:04;;;;;;;2.70;1.10;;;36.90;55.20;;;;;;5039238;28;20063;-85
2022/08/25 11:58:43;;;;;;;1.67;1.00;;;37.00;54.60;;;;;;5039794;28;20494;-86
2022/08/25 12:01:41;;;;;;;3.25;1.10;;;37.20;53.00;;;;;;5043303;28;20536;-87
2022/08/25 12:04:39;;;;;;;3.75;1.10;;;37.40;53.90;;;;;;5041252;28;20045;-87
2022/08/25 12:07:16;;;;;;;5.10;1.10;;;37.60;52.90;;;;;;5008061;28;20089;-88
2022/08/25 12:09:54;;;;;;;3.35;1.38;;;37.60;54.00;;;;;;5015152;28;20053;-89
2022/08/25 12:12:42;;;;;;;3.90;1.30;;;37.70;53.50;;;;;;5043410;28;20119;-89
2022/08/25 12:15:30;;;;;;;1.70;0.90;;;37.60;53.40;;;;;;5031872;28;20492;-86
2022/08/25 12:18:26;;;;;;;2.28;1.20;;;37.70;53.30;;;;;;5029692;28;20057;-88
2022/08/25 12:20:55;;;;;;;2.50;1.10;;;37.80;51.00;;;;;;5034849;28;20049;-88
2022/08/25 12:23:36;;;;;;;2.95;1.30;;;37.80;53.00;;;;;;5039191;28;20406;-86
2022/08/25 12:26:20;;;;;;;2.10;1.15;;;37.90;52.40;;;;;;5053857;28;20124;-87
2022/08/25 12:29:05;;;;;;;4.50;1.30;;;37.40;51.10;;;;;;5021979;28;20080;-88
2022/08/25 12:32:06;;;;;;;3.63;1.23;;;37.30;51.00;;;;;;5023041;28;20060;-87
2022/08/25 12:34:47;;;;;;;2.33;1.20;;;37.60;51.20;;;;;;5039087;28;20399;-87
2022/08/25 12:37:17;;;;;;;3.50;1.30;;;37.40;52.10;;;;;;5021161;28;20507;-87
2022/08/25 12:39:56;;;;;;;2.22;1.20;;;37.60;51.80;;;;;;5038925;28;20057;-88
2022/08/25 12:42:29;;;;;;;1.92;0.90;;;37.70;50.90;;;;;;5019763;28;20049;-88
2022/08/25 12:45:52;;;;;;;;;;;;;;;;;;;;;
2022/08/25 12:48:33;;;;;;;3.03;1.40;;;38.10;50.90;;;;;;5036467;28;20474;-87
2022/08/25 12:51:04;;;;;;;3.20;1.20;;;38.10;51.10;;;;;;5037922;28;20089;-87
2022/08/25 12:53:35;;;;;;;2.72;1.40;;;38.30;51.60;;;;;;5046993;28;20057;-88
2022/08/25 12:56:19;;;;;;;2.40;1.10;;;38.30;50.90;;;;;;5036241;28;20053;-88
2022/08/25 12:59:05;;;;;;;3.50;1.05;;;38.10;50.40;;;;;;5046433;28;20069;-87
2022/08/25 13:02:04;;;;;;;2.22;1.23;;;38.00;50.00;;;;;;5037991;28;20053;-87
2022/08/25 13:04:58;;;;;;;1.95;1.30;;;37.70;50.40;;;;;;5038737;28;20053;-87
2022/08/25 13:07:45;;;;;;;3.38;1.20;;;37.50;50.70;;;;;;5030222;28;20064;-88
2022/08/25 13:11:08;;;;;;;2.45;1.27;;;37.50;51.40;;;;;;5037666;28;20573;-87
2022/08/25 13:14:00;;;;;;;4.47;1.20;;;37.70;50.70;;;;;;4913815;29;20095;-88
2022/08/25 13:16:32;;;;;;;2.53;1.20;;;37.70;49.80;;;;;;5024451;28;20049;-89
2022/08/25 13:19:08;;;;;;;2.45;1.13;;;37.70;50.30;;;;;;5035096;28;20368;-88
2022/08/25 13:21:53;;;;;;;2.80;1.20;;;37.90;50.60;;;;;;5020300;28;20106;-89
2022/08/25 13:24:29;;;;;;;2.10;1.10;;;37.70;50.20;;;;;;5023001;28;20041;-88
2022/08/25 13:27:06;;;;;;;2.47;1.20;;;37.80;50.50;;;;;;5028952;28;20048;-89
2022/08/25 13:29:54;;;;;;;4.50;1.20;;;38.00;50.40;;;;;;5023135;28;20134;-87
2022/08/25 13:32:33;;;;;;;3.35;1.08;;;38.10;50.90;;;;;;5025745;28;20052;-88
2022/08/25 13:35:13;;;;;;;3.38;1.25;;;38.30;50.50;;;;;;5032297;28;20061;-88
2022/08/25 13:37:39;;;;;;;2.22;1.30;;;38.50;50.80;;;;;;5025181;28;20037;-89
2022/08/25 13:40:24;;;;;;;4.25;1.38;;;38.70;50.50;;;;;;5033355;28;20041;-87
2022/08/25 13:42:55;;;;;;;;;;;38.90;50.50;;;;;;5036012;28;20106;-89
2022/08/25 13:45:25;;;;;;;3.30;1.40;;;38.80;50.20;;;;;;5028193;28;19928;-87
2022/08/25 13:47:53;;;;;;;4.40;1.27;;;38.50;50.20;;;;;;5031205;28;20118;-85
2022/08/25 13:50:28;;;;;;;5.85;1.40;;;38.70;49.90;;;;;;5016484;28;20048;-85
2022/08/25 13:53:06;;;;;;;;;;;38.80;50.50;;;;;;5034908;28;20132;-86